Time;durP1;ratioP1;P1;durP2;ratioP2;P2;SDS_P1;SDS_P2;PMS_P1;PMS_P2;Temp;Humidity;BMP_temperature;BMP_pressure;BME280_temperature;BME280_humidity;BME280_pressure;Samples;Min_cycle;Max_cycle;Signal;HPM_P1;HPM_P2
2023/06/07 00:01:50;;;;;;;10.18;6.03;;;10.40;99.90;;;;;;5058177;28;20104;-73
2023/06/07 00:04:15;;;;;;;8.27;5.63;;;10.40;99.90;;;;;;5057373;28;20053;-73
2023/06/07 00:06:41;;;;;;;13.60;6.15;;;10.40;99.90;;;;;;5054315;28;20053;-73
2023/06/07 00:09:09;;;;;;;15.05;5.85;;;10.40;99.90;;;;;;5048591;28;20040;-73
2023/06/07 00:11:35;;;;;;;13.77;5.97;;;10.40;99.90;;;;;;5042197;28;20024;-73
2023/06/07 00:14:02;;;;;;;12.13;6.10;;;10.30;99.90;;;;;;5047340;28;20029;-74
2023/06/07 00:16:27;;;;;;;7.32;4.65;;;10.40;99.90;;;;;;5041427;28;20032;-74
2023/06/07 00:18:53;;;;;;;17.38;6.35;;;10.30;99.90;;;;;;5042209;28;20079;-74
2023/06/07 00:21:20;;;;;;;15.07;5.95;;;10.40;99.90;;;;;;5045180;28;20239;-75
2023/06/07 00:23:46;;;;;;;15.95;6.35;;;10.30;99.90;;;;;;5048396;28;20044;-74
2023/06/07 00:26:12;;;;;;;8.88;5.15;;;10.30;99.90;;;;;;5045476;28;20746;-74
2023/06/07 00:28:37;;;;;;;10.95;6.30;;;10.30;99.90;;;;;;5047002;28;20033;-74
2023/06/07 00:31:04;;;;;;;15.43;5.90;;;10.30;99.90;;;;;;5047837;28;20112;-73
2023/06/07 00:33:30;;;;;;;9.95;5.70;;;10.30;99.90;;;;;;5053615;28;20028;-73
2023/06/07 00:35:55;;;;;;;10.93;5.65;;;10.30;99.90;;;;;;5048592;28;20396;-74
2023/06/07 00:38:23;;;;;;;11.63;5.70;;;10.30;99.90;;;;;;5053918;28;20582;-73
2023/06/07 00:40:48;;;;;;;10.82;5.70;;;10.30;99.90;;;;;;5052395;28;20594;-73
2023/06/07 00:43:14;;;;;;;11.02;5.85;;;10.30;99.90;;;;;;5051125;28;20120;-74
2023/06/07 00:45:40;;;;;;;8.55;5.78;;;10.30;99.90;;;;;;5045007;28;20052;-74
2023/06/07 00:48:06;;;;;;;12.55;5.50;;;10.20;99.90;;;;;;5041752;28;20115;-73
2023/06/07 00:50:32;;;;;;;12.63;5.90;;;10.30;99.90;;;;;;5031818;28;20140;-73
2023/06/07 00:52:58;;;;;;;15.25;5.75;;;10.20;99.90;;;;;;5025206;28;20020;-74
2023/06/07 00:55:25;;;;;;;12.13;5.63;;;10.20;99.90;;;;;;5038788;28;20069;-74
2023/06/07 00:57:50;;;;;;;10.05;5.78;;;10.20;99.90;;;;;;5043235;28;20036;-73
2023/06/07 01:00:16;;;;;;;9.45;5.70;;;10.10;99.90;;;;;;5039742;28;20045;-75
2023/06/07 01:02:46;;;;;;;11.90;5.63;;;10.10;99.90;;;;;;5054099;28;20388;-74
2023/06/07 01:05:12;;;;;;;11.45;5.50;;;10.20;99.90;;;;;;5024888;28;20489;-73
2023/06/07 01:07:38;;;;;;;13.50;5.63;;;10.20;99.90;;;;;;5042301;28;20066;-73
2023/06/07 01:10:05;;;;;;;9.13;5.40;;;10.20;99.90;;;;;;5033761;28;20040;-73
2023/06/07 01:12:34;;;;;;;11.10;5.72;;;10.20;99.90;;;;;;5042449;28;20166;-74
2023/06/07 01:15:00;;;;;;;16.45;5.43;;;10.20;99.90;;;;;;5054047;28;20333;-74
2023/06/07 01:17:28;;;;;;;12.57;6.28;;;10.20;99.90;;;;;;5041093;28;20040;-73
2023/06/07 01:19:57;;;;;;;11.00;5.32;;;10.20;99.90;;;;;;5035381;28;20029;-74
2023/06/07 01:22:27;;;;;;;9.68;5.13;;;10.10;99.90;;;;;;5054638;28;20460;-74
2023/06/07 01:24:55;;;;;;;11.70;5.75;;;10.20;99.90;;;;;;5045355;28;20071;-74
2023/06/07 01:27:27;;;;;;;13.68;5.55;;;10.10;99.90;;;;;;5051309;28;20031;-73
2023/06/07 01:29:56;;;;;;;12.70;6.38;;;10.10;99.90;;;;;;5050071;28;20036;-73
2023/06/07 01:32:23;;;;;;;12.32;6.25;;;10.10;99.90;;;;;;5048982;28;20153;-74
2023/06/07 01:34:51;;;;;;;12.20;6.20;;;10.20;99.90;;;;;;5040620;28;20103;-74
2023/06/07 01:37:16;;;;;;;11.48;5.88;;;10.10;99.90;;;;;;5027781;28;20041;-73
2023/06/07 01:39:42;;;;;;;12.63;5.28;;;10.20;99.90;;;;;;5050307;28;20032;-74
2023/06/07 01:42:12;;;;;;;13.35;5.88;;;10.10;99.90;;;;;;5041395;28;20373;-74
2023/06/07 01:44:39;;;;;;;10.45;5.88;;;10.10;99.90;;;;;;5043737;28;20043;-74
2023/06/07 01:47:06;;;;;;;11.90;5.88;;;10.10;99.90;;;;;;5047284;28;20024;-74
2023/06/07 01:49:32;;;;;;;13.05;5.68;;;10.10;99.90;;;;;;4688709;28;10000065;-73
2023/06/07 01:51:58;;;;;;;12.57;5.75;;;10.10;99.90;;;;;;5037062;28;20064;-74
2023/06/07 01:54:24;;;;;;;11.07;6.00;;;10.00;99.90;;;;;;5041460;28;20514;-74
2023/06/07 01:57:11;;;;;;;14.88;6.13;;;10.00;99.90;;;;;;5045640;28;20020;-73
2023/06/07 02:00:09;;;;;;;8.25;5.57;;;10.00;99.90;;;;;;5040474;28;20107;-74
2023/06/07 02:02:42;;;;;;;16.20;5.97;;;10.00;99.90;;;;;;5037277;28;20057;-74
2023/06/07 02:05:15;;;;;;;9.85;5.95;;;10.00;99.90;;;;;;5043970;28;20052;-74
2023/06/07 02:07:48;;;;;;;9.93;5.07;;;10.10;99.90;;;;;;5045736;28;20106;-74
2023/06/07 02:10:16;;;;;;;13.38;5.88;;;10.10;99.90;;;;;;5050310;28;20032;-73
2023/06/07 02:12:42;;;;;;;11.95;6.20;;;10.10;99.90;;;;;;5050732;28;20028;-74
2023/06/07 02:15:09;;;;;;;13.95;5.88;;;10.10;99.90;;;;;;5038490;28;20037;-73
2023/06/07 02:17:57;;;;;;;13.25;5.63;;;10.10;99.90;;;;;;5037958;28;20021;-74
2023/06/07 02:20:27;;;;;;;10.88;5.80;;;10.10;99.90;;;;;;5035559;28;20811;-73
2023/06/07 02:22:54;;;;;;;11.32;6.20;;;10.10;99.90;;;;;;5051049;28;20058;-73
2023/06/07 02:25:20;;;;;;;11.27;6.28;;;10.10;99.90;;;;;;5038484;28;20127;-74
2023/06/07 02:27:46;;;;;;;10.07;6.05;;;10.00;99.90;;;;;;5044828;28;20114;-73
2023/06/07 02:30:12;;;;;;;11.43;6.55;;;10.00;99.90;;;;;;5036442;28;20135;-74
2023/06/07 02:32:38;;;;;;;14.10;7.22;;;10.00;99.90;;;;;;5042345;28;20028;-74
2023/06/07 02:35:07;;;;;;;11.20;6.13;;;10.00;99.90;;;;;;5040678;28;20159;-74
2023/06/07 02:37:32;;;;;;;12.38;7.05;;;10.00;99.90;;;;;;5048086;28;20588;-74
2023/06/07 02:39:58;;;;;;;16.63;7.57;;;10.00;99.90;;;;;;5043792;28;20036;-74
2023/06/07 02:42:23;;;;;;;11.90;6.15;;;10.00;99.90;;;;;;5041946;28;20165;-73
2023/06/07 02:44:49;;;;;;;10.93;5.78;;;10.00;99.90;;;;;;5053701;28;20051;-73
2023/06/07 02:47:15;;;;;;;12.65;5.75;;;10.00;99.90;;;;;;5045946;28;20707;-74
2023/06/07 02:49:41;;;;;;;16.05;7.38;;;10.00;99.90;;;;;;5040735;28;20261;-74
2023/06/07 02:52:07;;;;;;;12.52;7.05;;;10.00;99.90;;;;;;5046562;28;20036;-73
2023/06/07 02:54:34;;;;;;;14.82;6.55;;;9.90;99.90;;;;;;5032855;28;20036;-73
2023/06/07 02:57:00;;;;;;;12.95;6.72;;;9.90;99.90;;;;;;5047432;28;20090;-73
2023/06/07 02:59:26;;;;;;;12.23;6.65;;;9.90;99.90;;;;;;5038533;28;20057;-74
2023/06/07 03:01:52;;;;;;;12.25;6.20;;;10.00;99.90;;;;;;5047679;28;20029;-73
2023/06/07 03:04:19;;;;;;;11.90;6.50;;;10.00;99.90;;;;;;5040206;28;20051;-74
2023/06/07 03:06:46;;;;;;;13.18;6.57;;;10.10;99.90;;;;;;5050679;28;20104;-73
2023/06/07 03:09:14;;;;;;;12.02;6.50;;;10.10;99.90;;;;;;5040878;28;20025;-74
2023/06/07 03:11:40;;;;;;;12.52;6.78;;;10.10;99.90;;;;;;5039465;28;20025;-74
2023/06/07 03:14:06;;;;;;;18.77;6.35;;;10.10;99.90;;;;;;5050446;28;20044;-73
2023/06/07 03:16:32;;;;;;;13.73;6.22;;;10.10;99.90;;;;;;5045613;28;20054;-74
2023/06/07 03:18:57;;;;;;;12.40;6.47;;;10.20;99.90;;;;;;5045741;28;20170;-75
2023/06/07 03:21:23;;;;;;;14.50;5.60;;;10.20;99.90;;;;;;5053957;28;20487;-74
2023/06/07 03:23:49;;;;;;;9.45;5.93;;;10.20;99.90;;;;;;5047820;28;20763;-74
2023/06/07 03:26:16;;;;;;;14.20;7.10;;;10.20;99.90;;;;;;5043515;28;20128;-73
2023/06/07 03:28:42;;;;;;;12.65;6.55;;;10.20;99.90;;;;;;5039136;28;20031;-74
2023/06/07 03:31:08;;;;;;;13.25;6.20;;;10.10;99.90;;;;;;5046970;28;20025;-73
2023/06/07 03:33:33;;;;;;;9.55;5.80;;;10.20;99.90;;;;;;5044921;28;20438;-74
2023/06/07 03:35:59;;;;;;;14.13;5.80;;;10.20;99.90;;;;;;5052011;28;20119;-74
2023/06/07 03:38:24;;;;;;;13.23;5.90;;;10.20;99.90;;;;;;5054875;28;20654;-73
2023/06/07 03:40:50;;;;;;;15.90;6.65;;;10.20;99.90;;;;;;5052320;28;20134;-73
2023/06/07 03:43:16;;;;;;;15.27;6.45;;;10.20;99.90;;;;;;5051811;28;20215;-73
2023/06/07 03:45:41;;;;;;;14.15;7.10;;;10.20;99.90;;;;;;5027867;28;20144;-73
2023/06/07 03:48:07;;;;;;;12.55;6.22;;;10.20;99.90;;;;;;5055622;28;20385;-73
2023/06/07 03:50:32;;;;;;;12.10;6.30;;;10.20;99.90;;;;;;5041359;28;20024;-73
2023/06/07 03:52:58;;;;;;;9.75;6.75;;;10.10;99.90;;;;;;5044070;28;20037;-73
2023/06/07 03:55:23;;;;;;;12.32;6.93;;;10.10;99.90;;;;;;5044252;28;20033;-73
2023/06/07 03:57:49;;;;;;;15.55;7.82;;;10.10;99.90;;;;;;5047156;28;20033;-73
2023/06/07 04:00:17;;;;;;;17.00;7.57;;;10.10;99.90;;;;;;5055221;28;20055;-73
2023/06/07 04:02:43;;;;;;;17.27;7.03;;;10.20;99.90;;;;;;5051170;28;20025;-73
2023/06/07 04:05:09;;;;;;;15.57;7.35;;;10.30;99.90;;;;;;5043062;28;20036;-73
2023/06/07 04:07:34;;;;;;;14.13;7.00;;;10.30;99.90;;;;;;5058342;28;20032;-73
2023/06/07 04:10:00;;;;;;;14.38;6.53;;;10.30;99.90;;;;;;5055003;28;20055;-73
2023/06/07 04:12:25;;;;;;;12.63;6.70;;;10.30;99.90;;;;;;5047787;28;20080;-72
2023/06/07 04:14:51;;;;;;;12.35;6.85;;;10.30;99.90;;;;;;5048442;28;20052;-73
2023/06/07 04:17:17;;;;;;;16.65;6.25;;;10.40;99.90;;;;;;5043759;28;20362;-73
2023/06/07 04:19:42;;;;;;;15.70;6.75;;;10.40;99.90;;;;;;5047813;28;20029;-73
2023/06/07 04:22:08;;;;;;;8.82;5.93;;;10.40;99.90;;;;;;5059656;28;20040;-73
2023/06/07 04:24:33;;;;;;;11.23;6.40;;;10.50;99.90;;;;;;5050642;28;20056;-73
2023/06/07 04:27:01;;;;;;;10.20;5.90;;;10.50;99.90;;;;;;5041798;28;20046;-73
2023/06/07 04:29:26;;;;;;;15.45;6.75;;;10.50;99.90;;;;;;5045271;28;20086;-73
2023/06/07 04:31:56;;;;;;;10.73;7.07;;;10.60;99.90;;;;;;5050437;28;20032;-73
2023/06/07 04:34:25;;;;;;;13.55;6.30;;;10.60;99.90;;;;;;5048544;28;20041;-73
2023/06/07 04:36:52;;;;;;;11.23;5.75;;;10.70;99.90;;;;;;5051136;28;20795;-72
2023/06/07 04:39:18;;;;;;;9.43;5.75;;;10.80;99.90;;;;;;5049884;28;20028;-73
2023/06/07 04:41:45;;;;;;;16.67;7.72;;;10.80;99.90;;;;;;5049814;28;20381;-73
2023/06/07 04:44:11;;;;;;;13.52;6.85;;;10.80;99.90;;;;;;5037770;28;20131;-73
2023/06/07 04:46:39;;;;;;;16.98;6.88;;;10.90;99.90;;;;;;5030591;28;20025;-73
2023/06/07 04:49:05;;;;;;;12.38;5.57;;;10.90;99.90;;;;;;5049140;28;20519;-73
2023/06/07 04:51:31;;;;;;;10.68;5.97;;;11.00;99.90;;;;;;5046277;28;20039;-73
2023/06/07 04:54:01;;;;;;;16.42;6.88;;;11.10;99.90;;;;;;5041813;28;20121;-74
2023/06/07 04:56:27;;;;;;;12.77;6.35;;;11.20;99.90;;;;;;5037828;28;20027;-73
2023/06/07 04:58:53;;;;;;;10.45;5.53;;;11.30;99.90;;;;;;5046735;28;20028;-74
2023/06/07 05:01:20;;;;;;;12.40;5.68;;;11.40;99.90;;;;;;5054387;28;20033;-73
2023/06/07 05:03:45;;;;;;;13.00;6.05;;;11.50;99.90;;;;;;5041319;28;20927;-73
2023/06/07 05:06:11;;;;;;;17.05;5.53;;;11.60;99.90;;;;;;5047256;28;20071;-73
2023/06/07 05:08:37;;;;;;;10.60;5.32;;;11.60;99.90;;;;;;5046383;28;20040;-72
2023/06/07 05:11:03;;;;;;;10.32;5.20;;;11.80;99.90;;;;;;5028040;28;20762;-73
2023/06/07 05:13:28;;;;;;;14.10;5.60;;;11.80;99.90;;;;;;5039075;28;20052;-73
2023/06/07 05:15:54;;;;;;;9.60;5.20;;;11.90;99.90;;;;;;5039423;28;20023;-74
2023/06/07 05:18:20;;;;;;;15.32;5.50;;;12.00;99.90;;;;;;5052494;28;20108;-73
2023/06/07 05:20:49;;;;;;;10.77;5.10;;;12.10;99.90;;;;;;5021977;28;20484;-73
2023/06/07 05:23:17;;;;;;;8.88;5.47;;;12.30;99.90;;;;;;5036909;28;20029;-73
2023/06/07 05:25:46;;;;;;;11.65;5.47;;;12.40;99.90;;;;;;5041277;28;20091;-72
2023/06/07 05:28:12;;;;;;;11.40;5.88;;;12.40;99.90;;;;;;5045295;28;20021;-72
2023/06/07 05:30:39;;;;;;;12.88;5.40;;;12.50;99.90;;;;;;5041137;28;20072;-73
2023/06/07 05:33:05;;;;;;;10.35;5.03;;;12.50;99.90;;;;;;5042061;28;20594;-73
2023/06/07 05:35:31;;;;;;;14.02;5.72;;;12.70;99.90;;;;;;5049952;28;20054;-73
2023/06/07 05:37:57;;;;;;;11.10;5.10;;;12.80;99.90;;;;;;5055668;28;20733;-73
2023/06/07 05:40:23;;;;;;;10.35;6.07;;;13.00;99.90;;;;;;5043114;28;20125;-73
2023/06/07 05:42:50;;;;;;;13.68;5.03;;;13.20;99.90;;;;;;5051730;28;20068;-73
2023/06/07 05:45:16;;;;;;;14.20;5.30;;;13.30;99.90;;;;;;5052614;28;20662;-73
2023/06/07 05:47:43;;;;;;;11.98;5.50;;;13.40;99.90;;;;;;5049419;28;20025;-72
2023/06/07 05:50:10;;;;;;;12.43;5.15;;;13.50;99.90;;;;;;5036766;28;20028;-73
2023/06/07 05:52:36;;;;;;;8.70;5.28;;;13.30;99.90;;;;;;5023335;28;20133;-73
2023/06/07 05:55:03;;;;;;;15.13;5.22;;;13.40;99.90;;;;;;5045479;28;20016;-73
2023/06/07 05:57:29;;;;;;;10.52;4.70;;;13.50;99.90;;;;;;5036248;28;20449;-74
2023/06/07 05:59:55;;;;;;;8.25;4.55;;;13.60;99.90;;;;;;5041687;28;20031;-73
2023/06/07 06:02:20;;;;;;;14.23;5.10;;;14.00;99.90;;;;;;5043269;28;20024;-73
2023/06/07 06:04:47;;;;;;;10.65;5.50;;;14.10;99.90;;;;;;5046437;28;20099;-73
2023/06/07 06:07:15;;;;;;;11.05;5.07;;;14.30;99.90;;;;;;5020041;28;20515;-73
2023/06/07 06:09:41;;;;;;;12.38;4.95;;;14.40;99.90;;;;;;5041808;28;20067;-74
2023/06/07 06:12:07;;;;;;;9.15;4.70;;;14.40;99.90;;;;;;5040534;28;20021;-74
2023/06/07 06:14:33;;;;;;;12.75;4.40;;;14.50;99.90;;;;;;5037545;28;20036;-72
2023/06/07 06:16:58;;;;;;;6.63;3.88;;;14.60;99.90;;;;;;5039495;28;20400;-74
2023/06/07 06:19:25;;;;;;;12.60;4.45;;;14.80;99.90;;;;;;5020301;28;20036;-73
2023/06/07 06:21:50;;;;;;;11.95;4.88;;;15.10;99.90;;;;;;5038531;28;20134;-74
2023/06/07 06:24:16;;;;;;;10.60;4.72;;;15.20;99.90;;;;;;5043264;28;20105;-72
2023/06/07 06:26:42;;;;;;;11.10;4.43;;;15.30;99.90;;;;;;5042577;28;20119;-73
2023/06/07 06:29:07;;;;;;;8.73;5.13;;;15.00;99.90;;;;;;5044344;28;20036;-73
2023/06/07 06:31:33;;;;;;;10.30;4.40;;;15.00;99.90;;;;;;5040634;28;20029;-73
2023/06/07 06:33:59;;;;;;;15.60;4.45;;;15.00;99.90;;;;;;5040874;28;20029;-72
2023/06/07 06:36:26;;;;;;;8.05;4.32;;;14.90;99.90;;;;;;5054542;28;20040;-72
2023/06/07 06:38:52;;;;;;;13.07;4.25;;;14.70;99.90;;;;;;5044425;28;20119;-73
2023/06/07 06:41:17;;;;;;;9.15;4.50;;;15.00;99.90;;;;;;5042221;28;20103;-73
2023/06/07 06:43:43;;;;;;;10.82;4.25;;;15.30;99.90;;;;;;5046443;28;20063;-73
2023/06/07 06:46:09;;;;;;;9.23;4.03;;;15.50;99.90;;;;;;5033529;28;20047;-73
2023/06/07 06:48:37;;;;;;;13.13;4.63;;;15.60;99.90;;;;;;5052968;28;20527;-74
2023/06/07 06:51:02;;;;;;;8.98;4.45;;;15.90;99.90;;;;;;5043573;28;20032;-73
2023/06/07 06:53:28;;;;;;;9.85;4.93;;;15.70;99.90;;;;;;5045426;28;20032;-73
2023/06/07 06:55:53;;;;;;;58.35;28.55;;;15.50;99.90;;;;;;5042989;28;21048;-73
2023/06/07 06:58:19;;;;;;;13.70;5.25;;;15.70;99.90;;;;;;5030128;28;20112;-74
2023/06/07 07:00:45;;;;;;;11.35;4.43;;;15.60;99.90;;;;;;5042646;28;20067;-73
2023/06/07 07:03:11;;;;;;;10.82;4.30;;;15.50;99.90;;;;;;5045352;28;20143;-72
2023/06/07 07:05:36;;;;;;;10.25;4.32;;;15.50;99.90;;;;;;5041783;28;20140;-73
2023/06/07 07:08:06;;;;;;;10.15;4.60;;;15.40;99.90;;;;;;5049315;28;20053;-73
2023/06/07 07:10:32;;;;;;;12.43;4.57;;;15.50;99.90;;;;;;5038730;28;20040;-73
2023/06/07 07:12:57;;;;;;;12.30;4.63;;;15.70;99.90;;;;;;5039622;28;20033;-73
2023/06/07 07:15:23;;;;;;;12.43;4.72;;;15.70;99.90;;;;;;5039330;28;20237;-74
2023/06/07 07:17:49;;;;;;;10.73;4.90;;;15.60;99.90;;;;;;5045522;28;20651;-73
2023/06/07 07:20:16;;;;;;;11.50;4.38;;;15.50;99.90;;;;;;5042101;28;20028;-73
2023/06/07 07:22:44;;;;;;;13.35;4.20;;;15.60;99.90;;;;;;5041997;28;20020;-73
2023/06/07 07:25:10;;;;;;;6.82;3.95;;;15.90;99.90;;;;;;5049619;28;20040;-73
2023/06/07 07:27:36;;;;;;;7.35;3.45;;;16.30;99.90;;;;;;5056350;28;20042;-74
2023/06/07 07:30:04;;;;;;;6.97;3.75;;;17.10;99.90;;;;;;5050833;28;20037;-74
2023/06/07 07:32:30;;;;;;;6.68;3.55;;;18.70;98.00;;;;;;5053725;28;20035;-73
2023/06/07 07:34:56;;;;;;;11.85;3.53;;;19.90;94.80;;;;;;5048979;28;20040;-73
2023/06/07 07:37:21;;;;;;;11.20;3.20;;;20.50;91.70;;;;;;5049109;28;20035;-73
2023/06/07 07:39:47;;;;;;;5.40;2.85;;;20.80;91.50;;;;;;5061340;28;20032;-73
2023/06/07 07:42:13;;;;;;;4.90;2.90;;;21.70;90.60;;;;;;5048364;28;20031;-74
2023/06/07 07:44:38;;;;;;;6.65;2.67;;;23.40;85.50;;;;;;5039522;28;20040;-73
2023/06/07 07:47:07;;;;;;;6.97;2.78;;;24.70;77.50;;;;;;5040178;28;20032;-74
2023/06/07 07:49:33;;;;;;;8.45;2.92;;;26.30;69.60;;;;;;5030903;28;20484;-73
2023/06/07 07:51:58;;;;;;;9.50;3.10;;;27.50;62.70;;;;;;5032498;28;20082;-73
2023/06/07 07:54:25;;;;;;;7.00;3.03;;;26.70;58.90;;;;;;5032647;28;20028;-72
2023/06/07 07:56:51;;;;;;;6.53;2.63;;;26.60;58.60;;;;;;5034915;28;20056;-73
2023/06/07 07:59:17;;;;;;;5.70;2.80;;;26.90;60.90;;;;;;5040065;28;20052;-73
2023/06/07 08:01:42;;;;;;;11.20;2.70;;;28.30;58.50;;;;;;5047940;28;20032;-73
2023/06/07 08:04:08;;;;;;;6.70;2.80;;;29.00;54.20;;;;;;5041820;28;20037;-73
2023/06/07 08:06:33;;;;;;;7.70;2.97;;;28.40;51.60;;;;;;5049666;28;20028;-74
2023/06/07 08:08:59;;;;;;;5.97;2.67;;;28.40;54.30;;;;;;5026152;28;20028;-74
2023/06/07 08:11:25;;;;;;;9.60;2.63;;;28.60;51.90;;;;;;5046449;28;20033;-74
2023/06/07 08:13:51;;;;;;;7.80;3.03;;;27.80;51.80;;;;;;5043414;28;20036;-74
2023/06/07 08:16:17;;;;;;;4.88;2.35;;;26.60;52.80;;;;;;5051845;28;20024;-74
2023/06/07 08:18:49;;;;;;;7.13;2.65;;;27.90;54.50;;;;;;5048989;28;20219;-74
2023/06/07 08:21:15;;;;;;;5.95;2.47;;;28.00;52.70;;;;;;5043532;28;20116;-72
2023/06/07 08:23:43;;;;;;;8.77;2.65;;;28.90;50.70;;;;;;5043438;28;20040;-72
2023/06/07 08:26:09;;;;;;;9.63;2.95;;;29.00;49.60;;;;;;5030071;28;20048;-72
2023/06/07 08:28:34;;;;;;;8.10;2.90;;;28.30;49.50;;;;;;5045434;28;20040;-72
2023/06/07 08:31:01;;;;;;;10.70;2.72;;;29.40;48.60;;;;;;5045566;28;20029;-72
2023/06/07 08:33:27;;;;;;;7.00;2.85;;;29.50;46.40;;;;;;5045850;28;20033;-72
2023/06/07 08:35:52;;;;;;;5.85;2.30;;;30.70;47.80;;;;;;5044710;28;20036;-73
2023/06/07 08:38:18;;;;;;;6.00;2.60;;;31.30;43.60;;;;;;5042108;28;20029;-73
2023/06/07 08:40:44;;;;;;;6.00;2.90;;;30.60;42.60;;;;;;5045897;28;20031;-74
2023/06/07 08:43:09;;;;;;;6.70;2.30;;;30.20;45.40;;;;;;5048462;28;20051;-73
2023/06/07 08:45:35;;;;;;;6.97;2.20;;;31.20;41.90;;;;;;5043699;28;20503;-73
2023/06/07 08:48:06;;;;;;;7.05;2.53;;;31.10;41.20;;;;;;5050989;28;20562;-74
2023/06/07 08:50:35;;;;;;;;;;;30.90;41.50;;;;;;5033053;28;20518;-74
2023/06/07 08:53:06;;;;;;;6.18;2.42;;;30.70;40.20;;;;;;5054673;28;19916;-73
2023/06/07 08:55:33;;;;;;;8.77;2.53;;;31.10;40.90;;;;;;5053993;28;20028;-73
2023/06/07 08:57:59;;;;;;;5.75;2.58;;;32.30;41.10;;;;;;5048727;28;20025;-74
2023/06/07 09:00:25;;;;;;;6.00;2.97;;;32.60;38.00;;;;;;5040592;28;20037;-73
2023/06/07 09:02:52;;;;;;;4.93;2.45;;;33.00;36.70;;;;;;5047741;28;20551;-73
2023/06/07 09:05:22;;;;;;;6.10;2.42;;;33.40;39.10;;;;;;5046432;28;20375;-73
2023/06/07 09:07:52;;;;;;;9.10;2.97;;;34.40;36.10;;;;;;5050173;28;20024;-73
2023/06/07 09:10:18;;;;;;;;;;;34.60;34.90;;;;;;5047698;28;20102;-73
2023/06/07 09:12:47;;;;;;;7.40;2.55;;;35.20;37.70;;;;;;5048715;28;19908;-73
2023/06/07 09:15:21;;;;;;;7.40;2.28;;;34.20;33.80;;;;;;5039849;28;20024;-74
2023/06/07 09:17:51;;;;;;;5.53;2.45;;;35.00;37.30;;;;;;5048690;28;20025;-73
2023/06/07 09:20:21;;;;;;;7.25;2.50;;;34.90;35.30;;;;;;5048100;28;20028;-74
2023/06/07 09:23:00;;;;;;;4.82;2.05;;;35.70;34.90;;;;;;5041284;28;20033;-72
2023/06/07 09:25:27;;;;;;;4.80;2.20;;;36.30;34.60;;;;;;5044710;28;20426;-74
2023/06/07 09:27:54;;;;;;;7.10;2.50;;;34.30;34.00;;;;;;5055024;28;20033;-73
2023/06/07 09:30:19;;;;;;;10.82;2.70;;;34.50;36.50;;;;;;5039627;28;20103;-73
2023/06/07 09:32:45;;;;;;;7.68;3.17;;;35.30;34.30;;;;;;5041786;28;20029;-74
2023/06/07 09:35:13;;;;;;;7.20;2.95;;;35.20;33.90;;;;;;5046834;28;20037;-73
2023/06/07 09:37:59;;;;;;;6.78;2.70;;;33.90;35.30;;;;;;5046370;28;20028;-73
2023/06/07 09:40:24;;;;;;;9.70;2.72;;;32.90;37.30;;;;;;5043595;28;20059;-73
2023/06/07 09:42:58;;;;;;;8.90;2.75;;;34.60;37.20;;;;;;5045094;28;20018;-74
2023/06/07 09:45:25;;;;;;;10.10;3.20;;;35.40;34.50;;;;;;5046882;28;20075;-74
2023/06/07 09:48:01;;;;;;;11.30;3.40;;;34.70;33.30;;;;;;5047449;28;20121;-74
2023/06/07 09:50:28;;;;;;;10.90;3.10;;;34.10;33.30;;;;;;5051105;28;20573;-73
2023/06/07 09:52:58;;;;;;;6.30;2.75;;;34.10;38.10;;;;;;5056633;28;20111;-73
2023/06/07 09:55:28;;;;;;;7.35;2.47;;;35.20;35.00;;;;;;5053414;28;20036;-73
2023/06/07 09:57:55;;;;;;;10.23;3.15;;;35.70;35.00;;;;;;5044529;28;20024;-73
2023/06/07 10:00:21;;;;;;;6.20;2.63;;;34.90;32.70;;;;;;5039626;28;20025;-72
2023/06/07 10:02:50;;;;;;;8.18;2.97;;;34.70;34.30;;;;;;5040508;28;20073;-73
2023/06/07 10:05:17;;;;;;;10.32;2.92;;;32.90;36.00;;;;;;5040991;28;20099;-73
2023/06/07 10:07:45;;;;;;;9.68;3.33;;;33.90;35.50;;;;;;5052048;28;20060;-73
2023/06/07 10:10:14;;;;;;;9.52;3.10;;;34.20;34.50;;;;;;5047734;28;20372;-73
2023/06/07 10:12:41;;;;;;;11.00;3.58;;;34.10;34.80;;;;;;5044390;28;20100;-73
2023/06/07 10:15:15;;;;;;;9.95;3.30;;;33.30;35.10;;;;;;5046999;28;20024;-72
2023/06/07 10:17:48;;;;;;;9.50;3.30;;;33.50;36.50;;;;;;5049754;28;20056;-72
2023/06/07 10:20:24;;;;;;;9.45;3.13;;;33.30;35.80;;;;;;5040215;28;20028;-73
2023/06/07 10:22:54;;;;;;;9.10;2.80;;;33.60;36.90;;;;;;5050353;28;20024;-74
2023/06/07 10:25:22;;;;;;;8.43;3.20;;;34.10;34.10;;;;;;5043729;28;20566;-73
2023/06/07 10:28:01;;;;;;;9.70;3.22;;;32.50;35.90;;;;;;5050293;28;20115;-73
2023/06/07 10:30:29;;;;;;;8.20;2.75;;;32.50;36.30;;;;;;5041181;28;20037;-73
2023/06/07 10:32:55;;;;;;;9.23;3.05;;;32.30;36.00;;;;;;5046275;28;20053;-73
2023/06/07 10:35:20;;;;;;;4.28;3.10;;;32.40;36.90;;;;;;5040159;28;20025;-73
2023/06/07 10:37:53;;;;;;;11.13;3.25;;;32.90;36.90;;;;;;5041507;28;20837;-73
2023/06/07 10:40:20;;;;;;;8.60;3.03;;;32.60;37.30;;;;;;5037079;28;20024;-73
2023/06/07 10:42:46;;;;;;;6.63;2.67;;;32.50;36.10;;;;;;5052695;28;20155;-73
2023/06/07 10:45:16;;;;;;;9.65;3.50;;;33.20;35.70;;;;;;5054274;28;20044;-73
2023/06/07 10:47:42;;;;;;;8.02;2.83;;;33.70;36.70;;;;;;5052185;28;20021;-72
2023/06/07 10:50:32;;;;;;;9.38;3.05;;;34.50;36.10;;;;;;5040186;28;20416;-73
2023/06/07 10:53:01;;;;;;;7.43;2.63;;;34.70;34.20;;;;;;5037106;28;20047;-73
2023/06/07 10:55:31;;;;;;;8.40;3.35;;;32.70;33.40;;;;;;5038707;28;20041;-72
2023/06/07 10:57:58;;;;;;;8.20;3.05;;;31.10;36.80;;;;;;4691503;28;9999627;-73
2023/06/07 11:00:35;;;;;;;10.10;3.33;;;30.80;36.80;;;;;;5056182;28;20067;-73
2023/06/07 11:03:11;;;;;;;8.95;2.92;;;31.70;37.20;;;;;;5052995;28;20025;-73
2023/06/07 11:05:55;;;;;;;8.93;3.03;;;32.80;37.90;;;;;;5044401;28;20736;-73
2023/06/07 11:08:31;;;;;;;10.23;3.38;;;33.30;37.20;;;;;;5058342;28;20496;-73
2023/06/07 11:11:00;;;;;;;10.82;3.58;;;32.70;36.20;;;;;;5054385;28;20037;-73
2023/06/07 11:13:26;;;;;;;10.70;3.50;;;32.20;38.60;;;;;;5047177;28;20140;-73
2023/06/07 11:15:52;;;;;;;10.65;2.60;;;31.90;36.40;;;;;;5048981;28;20528;-74
2023/06/07 11:18:17;;;;;;;8.15;3.03;;;32.60;37.90;;;;;;5051898;28;20139;-73
2023/06/07 11:20:44;;;;;;;7.32;3.03;;;33.20;37.30;;;;;;5035043;28;20033;-73
2023/06/07 11:23:27;;;;;;;10.18;4.50;;;32.50;36.30;;;;;;5034712;28;20123;-73
2023/06/07 11:26:05;;;;;;;12.30;4.50;;;30.90;39.20;;;;;;5043204;28;20075;-73
2023/06/07 11:28:32;;;;;;;9.50;4.15;;;30.20;40.20;;;;;;5055310;28;20028;-73
2023/06/07 11:30:59;;;;;;;8.82;3.50;;;29.80;44.70;;;;;;5046559;28;20029;-73
2023/06/07 11:33:25;;;;;;;12.02;3.60;;;28.70;46.80;;;;;;5026208;28;20028;-73
2023/06/07 11:35:52;;;;;;;8.43;3.85;;;27.30;48.30;;;;;;5050528;28;20123;-73
2023/06/07 11:38:19;;;;;;;10.32;3.60;;;25.90;52.20;;;;;;5043127;28;20154;-72
2023/06/07 11:40:45;;;;;;;9.48;3.40;;;25.40;54.10;;;;;;5039528;28;20511;-73
2023/06/07 11:43:11;;;;;;;12.52;3.63;;;25.70;65.80;;;;;;5043696;28;20173;-74
2023/06/07 11:45:41;;;;;;;9.07;3.30;;;25.20;61.90;;;;;;5050830;28;20036;-72
2023/06/07 11:48:08;;;;;;;8.68;3.17;;;25.00;58.60;;;;;;5044713;28;20025;-72
2023/06/07 11:50:37;;;;;;;11.55;3.40;;;24.50;69.00;;;;;;5045408;28;20485;-73
2023/06/07 11:53:05;;;;;;;8.73;3.20;;;24.50;63.60;;;;;;5041211;28;20503;-72
2023/06/07 11:55:32;;;;;;;9.25;3.17;;;24.80;71.10;;;;;;5040332;28;20100;-73
2023/06/07 11:58:02;;;;;;;13.10;3.35;;;25.30;70.70;;;;;;5041463;28;20136;-72
2023/06/07 12:00:30;;;;;;;12.93;3.40;;;25.20;66.10;;;;;;5027562;28;20130;-73
2023/06/07 12:02:56;;;;;;;6.43;2.88;;;24.70;65.60;;;;;;5053667;28;20017;-73
2023/06/07 12:05:30;;;;;;;9.82;2.92;;;24.60;67.60;;;;;;5043806;28;20661;-73
2023/06/07 12:08:04;;;;;;;10.73;3.20;;;24.90;75.20;;;;;;5047852;28;20142;-72
2023/06/07 12:10:31;;;;;;;10.57;3.40;;;25.30;72.90;;;;;;5057362;28;20029;-73
2023/06/07 12:13:14;;;;;;;12.00;3.60;;;25.30;69.00;;;;;;5055772;28;20043;-83
2023/06/07 12:15:52;;;;;;;9.27;3.20;;;24.70;67.00;;;;;;5048338;28;20430;-85
2023/06/07 12:18:36;;;;;;;10.20;3.40;;;24.20;72.40;;;;;;5059865;28;20108;-84
2023/06/07 12:21:10;;;;;;;8.75;3.25;;;24.40;70.80;;;;;;5050508;28;20035;-85
2023/06/07 12:23:37;;;;;;;8.38;3.25;;;24.20;71.30;;;;;;5069751;28;20043;-82
2023/06/07 12:26:17;;;;;;;10.65;3.65;;;24.20;70.70;;;;;;4363594;28;10000360;-83
2023/06/07 12:28:43;;;;;;;9.07;3.08;;;24.40;72.30;;;;;;5051590;28;20024;-86
2023/06/07 12:31:26;;;;;;;10.80;3.20;;;24.80;70.20;;;;;;5060097;28;20036;-82
2023/06/07 12:33:53;;;;;;;9.75;3.70;;;24.60;73.80;;;;;;5054554;28;20117;-85
2023/06/07 12:36:19;;;;;;;10.27;3.47;;;24.40;70.00;;;;;;5053860;28;20059;-87
2023/06/07 12:38:45;;;;;;;10.13;3.85;;;24.10;77.20;;;;;;5058142;28;20055;-87
2023/06/07 12:41:10;;;;;;;6.85;3.63;;;24.40;83.60;;;;;;5055609;28;20074;-82
2023/06/07 12:43:36;;;;;;;9.80;3.55;;;24.70;79.50;;;;;;5057771;28;20495;-83